Time;durP1;ratioP1;P1;durP2;ratioP2;P2;SDS_P1;SDS_P2;PMS_P1;PMS_P2;Temp;Humidity;BMP_temperature;BMP_pressure;BME280_temperature;BME280_humidity;BME280_pressure;Samples;Min_cycle;Max_cycle;Signal;HPM_P1;HPM_P2
2021/11/15 00:01:53;;;;;;;34.28;25.08;;;12.70;99.90;;;12.97;72.08;102661.13;5053856;28;20041;-66
2021/11/15 00:04:23;;;;;;;32.22;24.45;;;12.70;99.90;;;12.00;71.60;102537.47;5054138;28;20045;-66
2021/11/15 00:06:53;;;;;;;34.17;25.23;;;12.70;99.90;;;12.45;72.05;102551.47;5054115;28;20052;-66
2021/11/15 00:09:21;;;;;;;32.97;23.88;;;12.80;99.90;;;12.96;72.09;102631.00;5053866;28;20037;-66
2021/11/15 00:11:49;;;;;;;32.67;24.98;;;12.80;99.90;;;13.02;71.71;102638.16;5069221;28;20445;-66
2021/11/15 00:14:20;;;;;;;30.88;24.35;;;12.80;99.90;;;12.92;71.68;102642.44;5053656;28;20124;-66
2021/11/15 00:16:49;;;;;;;34.38;25.30;;;12.70;99.90;;;12.94;71.96;102646.03;5053701;28;20552;-67
2021/11/15 00:19:17;;;;;;;31.45;24.77;;;12.80;99.90;;;12.41;71.75;102544.34;5054069;28;20052;-66
2021/11/15 00:21:46;;;;;;;37.35;26.23;;;12.80;99.90;;;12.78;71.69;102604.16;5052698;28;20048;-67
2021/11/15 00:24:17;;;;;;;33.10;25.63;;;12.80;99.90;;;12.96;71.98;102627.44;5053661;28;20123;-66
2021/11/15 00:26:46;;;;;;;35.53;25.20;;;12.80;99.90;;;12.96;71.92;102630.09;5053475;28;20091;-66
2021/11/15 00:29:18;;;;;;;31.65;24.45;;;12.80;99.90;;;13.00;71.98;102643.47;5053691;28;20536;-67
2021/11/15 00:31:47;;;;;;;33.42;25.63;;;12.80;99.90;;;12.91;71.74;102614.09;5053341;28;20048;-67
2021/11/15 00:34:17;;;;;;;34.42;25.15;;;12.80;99.90;;;12.98;71.76;102639.88;5053288;28;20106;-67
2021/11/15 00:36:45;;;;;;;35.25;25.73;;;12.80;99.90;;;13.04;71.93;102632.03;5053319;28;20044;-67
2021/11/15 00:39:16;;;;;;;33.88;24.70;;;12.80;99.90;;;13.01;71.94;102636.34;5052214;28;20132;-67
2021/11/15 00:41:45;;;;;;;37.78;26.15;;;12.80;99.90;;;12.92;71.94;102623.84;5053146;28;20102;-67
2021/11/15 00:44:16;;;;;;;35.63;25.05;;;12.80;99.90;;;12.79;71.61;102607.72;5052954;28;20507;-67
2021/11/15 00:46:45;;;;;;;34.38;25.73;;;12.70;99.90;;;12.63;71.54;102580.97;5053063;28;20556;-67
2021/11/15 00:49:14;;;;;;;35.17;25.42;;;12.70;99.90;;;12.98;71.53;102631.91;5053365;28;20548;-67
2021/11/15 00:51:43;;;;;;;33.03;24.75;;;12.70;99.90;;;12.73;71.37;102587.28;5052973;28;20474;-67
2021/11/15 00:54:11;;;;;;;33.85;25.50;;;12.70;99.90;;;12.92;71.63;102621.19;5053028;28;20041;-68
2021/11/15 00:56:39;;;;;;;35.35;26.15;;;12.80;99.90;;;12.63;71.83;102588.03;5052964;28;20103;-67
2021/11/15 00:59:08;;;;;;;36.17;27.15;;;12.70;99.90;;;12.87;71.95;102625.56;5052972;28;20091;-67
2021/11/15 01:01:37;;;;;;;35.42;25.70;;;12.70;99.90;;;12.71;72.21;102583.72;5053425;28;20128;-68
2021/11/15 01:04:08;;;;;;;37.13;25.57;;;12.70;99.90;;;12.90;71.93;102619.38;5051960;28;20140;-67
2021/11/15 01:06:36;;;;;;;34.22;25.55;;;12.70;99.90;;;12.67;71.87;102603.13;5052920;28;20049;-67
2021/11/15 01:09:06;;;;;;;38.78;26.75;;;12.60;99.90;;;12.52;71.75;102556.00;5052826;28;20578;-67
2021/11/15 01:11:34;;;;;;;38.65;26.92;;;12.60;99.90;;;12.83;71.92;102615.78;5052887;28;20533;-67
2021/11/15 01:14:03;;;;;;;38.95;26.75;;;12.60;99.90;;;12.63;71.73;102598.63;5052791;28;20076;-68
2021/11/15 01:16:31;;;;;;;36.33;26.15;;;12.60;99.90;;;12.65;72.23;102612.84;5052789;28;20394;-68
2021/11/15 01:19:03;;;;;;;33.67;25.45;;;12.50;99.90;;;12.73;72.14;102611.19;5052862;28;20040;-67
2021/11/15 01:21:33;;;;;;;39.72;27.33;;;12.50;99.90;;;12.74;72.24;102612.09;5052992;28;20069;-67
2021/11/15 01:24:02;;;;;;;38.97;27.20;;;12.60;99.90;;;12.57;72.57;102618.03;5052806;28;20051;-67
2021/11/15 01:26:30;;;;;;;34.03;25.77;;;12.40;99.90;;;12.49;72.55;102592.22;5053263;28;20826;-67
2021/11/15 01:28:59;;;;;;;37.88;26.95;;;12.50;99.90;;;12.63;72.55;102610.16;5052965;28;20040;-67
2021/11/15 01:31:28;;;;;;;36.38;25.85;;;12.50;99.90;;;12.47;72.48;102583.34;5052958;28;20546;-67
2021/11/15 01:33:56;;;;;;;41.95;26.85;;;12.50;99.90;;;12.63;72.47;102611.91;5055554;28;20241;-67
2021/11/15 01:36:25;;;;;;;36.47;26.95;;;12.50;99.90;;;12.50;72.66;102612.59;5056633;28;20505;-67
2021/11/15 01:38:55;;;;;;;38.10;27.80;;;12.30;99.90;;;12.37;72.86;102602.63;5056361;28;20047;-67
2021/11/15 01:41:24;;;;;;;36.13;25.80;;;12.20;99.90;;;12.04;73.68;102607.41;5056788;28;20103;-67
2021/11/15 01:43:53;;;;;;;37.85;26.05;;;11.90;99.90;;;12.27;73.47;102612.22;5056270;28;20088;-67
2021/11/15 01:46:21;;;;;;;39.95;27.60;;;12.00;99.90;;;12.02;73.80;102606.50;5056418;28;20052;-67
2021/11/15 01:48:50;;;;;;;38.63;28.42;;;11.90;99.90;;;12.07;73.71;102607.44;5072044;28;20048;-67
2021/11/15 01:51:18;;;;;;;35.75;25.90;;;11.90;99.90;;;12.22;73.64;102608.59;5056347;28;20487;-67
2021/11/15 01:53:48;;;;;;;40.17;27.27;;;12.00;99.90;;;12.31;73.58;102607.88;5055163;28;20077;-67
2021/11/15 01:56:18;;;;;;;36.05;26.10;;;12.10;99.90;;;12.18;73.05;102585.53;5056218;28;20124;-67
2021/11/15 01:58:47;;;;;;;37.28;27.02;;;12.10;99.90;;;12.34;73.22;102597.28;5055291;28;20663;-67
2021/11/15 02:01:15;;;;;;;38.60;27.23;;;12.20;99.90;;;12.30;73.27;102587.50;5055144;28;20043;-67
2021/11/15 02:03:44;;;;;;;36.05;26.20;;;12.20;99.90;;;12.39;72.64;102616.81;5056133;28;20041;-67
2021/11/15 02:06:15;;;;;;;33.88;24.85;;;12.20;99.90;;;12.30;72.35;102587.50;5056417;28;20072;-67
2021/11/15 02:08:44;;;;;;;37.55;25.40;;;12.20;99.90;;;12.50;72.17;102605.50;5056299;28;20381;-67
2021/11/15 02:11:12;;;;;;;35.47;25.88;;;12.30;99.90;;;12.40;72.07;102610.66;5056046;28;20044;-67
2021/11/15 02:13:44;;;;;;;36.00;25.20;;;12.30;99.90;;;12.35;72.12;102599.09;5056242;28;20045;-67
2021/11/15 02:16:14;;;;;;;36.95;26.48;;;12.30;99.90;;;11.84;73.14;102572.59;5056248;28;20037;-67
2021/11/15 02:18:43;;;;;;;37.83;26.23;;;12.00;99.90;;;12.19;73.20;102607.66;5054732;28;20489;-67
2021/11/15 02:21:13;;;;;;;39.58;26.23;;;12.00;99.90;;;11.97;73.34;102595.78;5055821;28;20040;-67
2021/11/15 02:23:45;;;;;;;36.22;26.15;;;12.00;99.90;;;11.94;73.85;102578.94;5056334;28;20048;-67
2021/11/15 02:26:18;;;;;;;35.33;25.48;;;11.90;99.90;;;12.27;73.86;102604.25;5056055;28;20049;-67
2021/11/15 02:28:49;;;;;;;34.30;25.27;;;12.00;99.90;;;12.31;73.60;102606.09;5054735;28;20064;-67
2021/11/15 02:31:20;;;;;;;;;;;12.10;99.90;;;12.35;73.10;102604.41;5055101;28;20061;-67
2021/11/15 02:33:49;;;;;;;33.85;24.58;;;12.20;99.90;;;10.81;72.42;102390.50;5055553;28;20344;-67
2021/11/15 02:36:20;;;;;;;35.65;25.20;;;12.20;99.90;;;12.45;72.44;102612.53;5055554;28;20037;-67
2021/11/15 02:38:51;;;;;;;32.42;24.17;;;12.20;99.90;;;12.42;71.88;102611.59;5054503;28;20052;-67
2021/11/15 02:41:20;;;;;;;;;;;12.20;99.90;;;11.81;72.88;102606.97;5056198;28;20079;-67
2021/11/15 02:43:48;;;;;;;32.38;24.17;;;11.90;99.90;;;11.81;73.39;102603.44;5053844;28;20016;-67
2021/11/15 02:46:17;;;;;;;33.67;24.58;;;11.70;99.90;;;11.51;74.26;102604.63;5055306;28;20056;-67
2021/11/15 02:48:52;;;;;;;33.08;24.67;;;11.40;99.90;;;9.55;74.57;102282.91;5055302;28;20094;-67
2021/11/15 02:51:24;;;;;;;32.67;24.35;;;11.20;99.90;;;11.72;74.21;102598.88;5054268;28;20060;-68
2021/11/15 02:53:52;;;;;;;32.53;24.58;;;11.40;99.90;;;11.22;74.36;102513.09;5055159;28;20043;-67
2021/11/15 02:56:22;;;;;;;32.97;24.85;;;11.50;99.90;;;11.75;74.55;102602.47;5055135;28;20073;-67
2021/11/15 02:58:51;;;;;;;35.30;25.20;;;11.50;99.90;;;11.83;74.16;102588.47;5055080;28;20041;-67
2021/11/15 03:01:21;;;;;;;35.20;25.17;;;11.70;99.90;;;12.06;74.07;102603.91;5055006;28;20041;-67
2021/11/15 03:03:51;;;;;;;32.33;24.20;;;11.80;99.90;;;12.10;73.82;102587.16;5054976;28;20140;-67
2021/11/15 03:06:21;;;;;;;29.63;23.17;;;11.90;99.90;;;12.24;73.13;102598.00;5054950;28;20037;-67
2021/11/15 03:08:50;;;;;;;33.40;24.20;;;12.00;99.90;;;12.09;72.81;102566.81;5055503;28;20053;-67
2021/11/15 03:11:18;;;;;;;32.00;23.38;;;12.10;99.90;;;12.34;72.90;102598.19;5055392;28;20290;-67
2021/11/15 03:13:49;;;;;;;32.58;23.88;;;12.10;99.90;;;12.40;72.78;102603.59;5053725;28;20147;-67
2021/11/15 03:16:17;;;;;;;29.60;22.70;;;12.20;99.90;;;12.45;72.34;102601.00;5070622;28;20056;-68
2021/11/15 03:18:46;;;;;;;30.42;23.92;;;12.20;99.90;;;12.23;72.15;102556.44;5055016;28;20102;-67
2021/11/15 03:21:19;;;;;;;34.15;23.13;;;12.30;99.90;;;11.99;72.08;102509.19;5054646;28;20045;-67
2021/11/15 03:23:52;;;;;;;29.88;23.58;;;12.30;99.90;;;12.46;71.58;102585.13;5054910;28;20072;-67
2021/11/15 03:26:21;;;;;;;32.97;24.30;;;12.30;99.90;;;12.55;71.08;102624.19;5070203;28;20056;-67
2021/11/15 03:28:52;;;;;;;32.63;22.55;;;12.30;99.90;;;12.50;71.15;102591.38;5070184;28;20501;-67
2021/11/15 03:31:24;;;;;;;27.60;21.65;;;12.40;99.90;;;12.48;71.00;102596.66;5054507;28;20052;-67
2021/11/15 03:33:58;;;;;;;30.75;21.48;;;12.30;99.90;;;12.43;70.79;102597.44;5054866;28;20174;-67
2021/11/15 03:36:27;;;;;;;30.58;21.73;;;12.30;99.90;;;12.43;70.93;102593.03;5054405;28;20037;-67
2021/11/15 03:38:59;;;;;;;31.60;21.88;;;12.30;99.90;;;12.39;70.99;102583.22;5053252;28;20051;-67
2021/11/15 03:41:33;;;;;;;31.75;22.58;;;12.30;99.90;;;12.24;71.00;102571.47;5069957;28;20487;-67
2021/11/15 03:44:05;;;;;;;30.20;21.55;;;12.20;99.90;;;12.45;71.27;102593.03;5054053;28;20118;-67
2021/11/15 03:46:33;;;;;;;30.05;21.75;;;12.30;99.90;;;11.79;71.01;102497.34;5054468;28;20099;-67
2021/11/15 03:49:05;;;;;;;35.50;23.60;;;12.30;99.90;;;12.47;71.26;102604.56;5054219;28;20040;-67
2021/11/15 03:51:39;;;;;;;29.42;21.70;;;12.30;99.90;;;12.53;71.09;102594.97;5069671;28;20450;-67
2021/11/15 03:54:09;;;;;;;32.20;22.90;;;12.30;99.90;;;12.45;71.18;102598.34;5054039;28;20060;-67
2021/11/15 03:56:38;;;;;;;31.50;23.20;;;12.30;99.90;;;12.40;71.16;102600.94;5052659;28;20060;-67
2021/11/15 03:59:09;;;;;;;29.30;21.88;;;12.20;99.90;;;12.41;71.09;102600.06;5054309;28;20076;-67
2021/11/15 04:01:39;;;;;;;31.90;23.17;;;12.20;99.90;;;11.91;71.59;102600.06;5069501;28;20064;-67
2021/11/15 04:04:14;;;;;;;28.63;21.42;;;12.00;99.90;;;11.51;73.11;102598.41;5054180;28;20041;-67
2021/11/15 04:06:49;;;;;;;30.92;21.63;;;11.50;99.90;;;11.88;72.94;102600.03;5052504;28;20053;-67
2021/11/15 04:09:19;;;;;;;31.75;22.98;;;11.60;99.90;;;11.83;72.50;102602.59;5054387;28;20063;-67
2021/11/15 04:11:49;;;;;;;32.78;22.70;;;11.70;99.90;;;11.49;73.01;102585.16;5054037;28;20274;-67
2021/11/15 04:14:17;;;;;;;33.03;23.27;;;11.60;99.90;;;11.81;73.50;102612.28;5069319;28;20040;-68
2021/11/15 04:16:46;;;;;;;32.60;22.90;;;11.60;99.90;;;11.22;73.08;102481.31;5053904;28;20037;-67
2021/11/15 04:19:18;;;;;;;34.67;24.10;;;11.70;99.90;;;11.61;72.70;102563.28;5053649;28;20041;-67
2021/11/15 04:21:48;;;;;;;32.95;23.52;;;11.70;99.90;;;11.81;74.05;102604.31;5053612;28;20049;-68
2021/11/15 04:24:16;;;;;;;32.38;23.23;;;11.60;99.90;;;12.02;73.46;102601.19;5053803;28;20040;-67
2021/11/15 04:26:46;;;;;;;30.02;22.85;;;11.80;99.90;;;12.00;72.84;102597.63;5053992;28;20552;-67
2021/11/15 04:29:14;;;;;;;30.50;22.13;;;11.80;99.90;;;12.07;72.52;102602.16;5069186;28;20657;-67
2021/11/15 04:31:43;;;;;;;26.85;21.08;;;11.90;99.90;;;12.10;72.51;102600.44;5053678;28;20288;-67
2021/11/15 04:34:12;;;;;;;29.05;20.95;;;11.90;99.90;;;12.15;71.94;102600.53;5053553;28;20045;-67
2021/11/15 04:36:42;;;;;;;30.33;21.92;;;11.90;99.90;;;12.16;71.93;102602.28;5053256;28;20270;-67
2021/11/15 04:39:11;;;;;;;;;;;12.00;99.90;;;12.21;71.73;102598.88;5053738;28;20410;-67
2021/11/15 04:41:40;;;;;;;32.42;21.63;;;12.00;99.90;;;12.23;71.68;102597.09;5053178;28;20017;-67
2021/11/15 04:44:13;;;;;;;30.60;21.23;;;12.00;99.90;;;12.29;71.52;102599.00;5052966;28;20132;-67
2021/11/15 04:46:41;;;;;;;33.47;24.30;;;12.10;99.90;;;10.56;71.41;102303.56;5053212;28;20130;-67
2021/11/15 04:49:10;;;;;;;30.15;22.35;;;12.10;99.90;;;12.10;71.51;102581.88;5053117;28;20048;-67
2021/11/15 04:51:39;;;;;;;31.48;22.30;;;12.00;99.90;;;12.18;71.58;102596.16;5053270;28;20033;-67
2021/11/15 04:54:08;;;;;;;34.08;23.20;;;12.00;99.90;;;12.08;71.45;102577.41;5053296;28;20033;-67
2021/11/15 04:56:37;;;;;;;30.45;22.00;;;12.00;99.90;;;12.26;71.63;102601.56;5053309;28;20033;-67
2021/11/15 04:59:06;;;;;;;29.58;22.20;;;12.00;99.90;;;12.17;71.61;102589.06;5053278;28;20049;-67
2021/11/15 05:01:36;;;;;;;30.45;22.17;;;12.10;99.90;;;12.27;71.59;102606.03;5053082;28;20053;-67
2021/11/15 05:04:06;;;;;;;29.23;21.02;;;12.10;99.90;;;12.30;71.36;102616.69;5052936;28;20041;-67
2021/11/15 05:06:34;;;;;;;33.13;20.95;;;12.10;99.90;;;12.22;71.24;102595.34;5068065;28;20471;-67
2021/11/15 05:09:04;;;;;;;31.23;20.63;;;12.10;99.90;;;11.87;71.22;102519.59;5053129;28;20044;-68
2021/11/15 05:11:32;;;;;;;30.90;21.40;;;12.10;99.90;;;12.13;71.48;102592.53;5052789;28;20445;-65
2021/11/15 05:14:01;;;;;;;33.13;22.10;;;12.10;99.90;;;12.20;71.31;102583.81;5053062;28;20094;-67
2021/11/15 05:16:29;;;;;;;35.60;23.08;;;12.20;99.90;;;12.37;71.44;102599.97;5052994;28;20077;-67
2021/11/15 05:18:59;;;;;;;33.47;22.63;;;12.20;99.90;;;12.29;71.54;102589.25;5051831;28;20069;-67
2021/11/15 05:21:28;;;;;;;34.07;22.07;;;12.20;99.90;;;12.38;71.69;102596.47;5051768;28;20095;-67
2021/11/15 05:23:57;;;;;;;33.90;22.33;;;12.20;99.90;;;12.35;71.89;102592.00;5052747;28;20041;-68
2021/11/15 05:26:28;;;;;;;32.92;22.17;;;12.20;99.90;;;12.33;71.90;102599.03;5052706;28;20037;-66
2021/11/15 05:28:57;;;;;;;35.65;21.88;;;12.10;99.90;;;12.19;72.18;102597.06;5053089;28;20037;-66
2021/11/15 05:31:27;;;;;;;37.67;24.60;;;12.10;99.90;;;12.15;72.46;102601.41;5052691;28;20095;-66
2021/11/15 05:33:55;;;;;;;36.80;22.85;;;12.00;99.90;;;12.01;72.33;102573.75;5052759;28;20091;-66
2021/11/15 05:36:25;;;;;;;35.78;22.98;;;12.00;99.90;;;11.70;72.79;102521.97;5052539;28;20122;-66
2021/11/15 05:38:54;;;;;;;35.13;22.75;;;11.90;99.90;;;11.84;72.85;102569.03;5051623;28;20128;-66
2021/11/15 05:41:25;;;;;;;34.47;23.17;;;12.00;99.90;;;11.69;73.49;102564.34;5052959;28;20478;-66
2021/11/15 05:43:53;;;;;;;34.38;23.17;;;11.80;99.90;;;11.85;74.00;102655.66;5052694;28;20053;-66
2021/11/15 05:46:24;;;;;;;36.83;23.80;;;11.70;99.90;;;11.93;74.27;102609.84;5052538;28;20517;-66
2021/11/15 05:48:53;;;;;;;35.35;22.30;;;11.70;99.90;;;11.98;74.62;102618.78;5051566;28;20072;-66
2021/11/15 05:51:22;;;;;;;36.97;22.92;;;11.70;99.90;;;11.90;74.73;102614.22;5052471;28;20044;-66
2021/11/15 05:53:52;;;;;;;34.85;22.38;;;11.70;99.90;;;11.94;75.08;102621.38;5052997;28;20060;-66
2021/11/15 05:56:23;;;;;;;32.50;22.17;;;11.70;99.90;;;11.93;75.23;102611.59;5052939;28;20444;-66
2021/11/15 05:58:51;;;;;;;34.28;21.15;;;11.70;99.90;;;11.83;74.94;102607.91;5052476;28;20045;-66
2021/11/15 06:01:20;;;;;;;32.85;22.30;;;11.70;99.90;;;11.95;75.22;102612.53;5051375;28;20037;-66
2021/11/15 06:03:48;;;;;;;33.70;22.85;;;11.70;99.90;;;11.73;75.73;102632.44;5052330;28;20041;-66
2021/11/15 06:06:20;;;;;;;35.10;21.63;;;11.60;99.90;;;11.81;75.39;102614.06;5052425;28;20402;-66
2021/11/15 06:08:56;;;;;;;32.20;21.33;;;11.60;99.90;;;11.84;75.24;102622.06;5052331;28;20569;-66
2021/11/15 06:11:25;;;;;;;31.25;21.33;;;11.70;99.90;;;11.68;75.83;102621.78;5052289;28;20448;-66
2021/11/15 06:13:53;;;;;;;31.85;21.60;;;11.60;99.90;;;11.78;75.64;102618.44;5052818;28;20140;-66
2021/11/15 06:16:24;;;;;;;30.83;21.15;;;11.60;99.90;;;11.69;75.48;102594.38;5052591;28;20041;-66
2021/11/15 06:18:53;;;;;;;31.27;20.80;;;11.70;99.90;;;11.88;75.25;102624.81;5053458;28;20051;-66
2021/11/15 06:21:22;;;;;;;31.92;21.27;;;11.70;99.90;;;11.83;75.03;102631.75;5054672;28;20141;-66
2021/11/15 06:23:52;;;;;;;29.85;20.50;;;11.70;99.90;;;11.90;75.16;102635.44;5055676;28;20048;-66
2021/11/15 06:26:21;;;;;;;29.50;19.70;;;11.70;99.90;;;11.81;74.90;102627.31;5055723;28;20056;-66
2021/11/15 06:28:49;;;;;;;28.30;19.42;;;11.70;99.90;;;11.19;74.56;102518.31;5055666;28;20095;-66
2021/11/15 06:31:19;;;;;;;29.88;19.63;;;11.60;99.90;;;11.66;74.51;102604.94;5055929;28;20048;-66
2021/11/15 06:33:49;;;;;;;29.48;19.63;;;11.60;99.90;;;11.85;74.78;102622.06;5056144;28;20041;-66
2021/11/15 06:36:18;;;;;;;26.88;19.02;;;11.70;99.90;;;11.85;74.60;102627.38;5055521;28;20041;-66
2021/11/15 06:38:47;;;;;;;31.17;20.48;;;11.70;99.90;;;11.91;74.34;102622.19;5055415;28;20123;-65
2021/11/15 06:41:16;;;;;;;25.85;19.13;;;11.70;99.90;;;11.86;74.31;102620.31;5055599;28;20079;-66
2021/11/15 06:43:45;;;;;;;31.25;20.95;;;11.70;99.90;;;11.60;74.60;102609.19;5055410;28;20060;-66
2021/11/15 06:46:15;;;;;;;29.42;20.40;;;11.60;99.90;;;11.47;74.98;102575.38;5054170;28;20395;-66
2021/11/15 06:48:44;;;;;;;29.38;20.45;;;11.60;99.90;;;11.76;75.13;102633.41;5055280;28;20073;-67
2021/11/15 06:51:32;;;;;;;29.75;20.45;;;11.60;99.90;;;11.71;74.70;102623.59;5054062;28;20122;-66
2021/11/15 06:54:01;;;;;;;30.30;21.20;;;11.60;99.90;;;11.83;74.76;102637.06;5055076;28;20037;-66
2021/11/15 06:56:31;;;;;;;28.77;20.15;;;11.60;99.90;;;10.92;74.66;102536.28;5054922;28;20040;-66
2021/11/15 06:59:00;;;;;;;30.77;21.40;;;11.40;99.90;;;11.18;75.44;102601.28;5055080;28;20041;-67
2021/11/15 07:01:28;;;;;;;32.70;21.42;;;11.30;99.90;;;10.76;75.92;102539.50;5053874;28;20453;-66
2021/11/15 07:03:57;;;;;;;30.92;20.98;;;11.20;99.90;;;11.36;76.09;102628.13;5054962;28;20037;-66
2021/11/15 07:06:25;;;;;;;31.60;21.70;;;11.20;99.90;;;11.49;76.16;102634.59;5054870;28;20037;-66
2021/11/15 07:08:54;;;;;;;30.05;21.35;;;11.30;99.90;;;11.58;75.54;102648.03;5054991;28;20072;-66
2021/11/15 07:11:23;;;;;;;28.33;20.33;;;11.30;99.90;;;11.58;75.75;102651.56;5055269;28;20154;-66
2021/11/15 07:13:53;;;;;;;31.58;21.70;;;11.40;99.90;;;11.56;75.51;102633.84;5054629;28;20037;-66
2021/11/15 07:16:21;;;;;;;30.15;21.20;;;11.50;99.90;;;11.48;75.39;102615.16;5054710;28;20045;-66
2021/11/15 07:18:52;;;;;;;31.10;21.70;;;11.50;99.90;;;11.68;74.94;102650.03;5055236;28;20044;-66
2021/11/15 07:21:21;;;;;;;31.20;21.98;;;11.60;99.90;;;11.47;74.86;102623.97;5054841;28;20465;-66
2021/11/15 07:23:50;;;;;;;30.13;22.13;;;11.50;99.90;;;11.60;74.92;102662.19;5054630;28;20041;-66
2021/11/15 07:26:22;;;;;;;31.38;22.77;;;11.50;99.90;;;11.34;75.17;102648.41;5055000;28;20037;-67
2021/11/15 07:28:53;;;;;;;39.70;24.05;;;11.30;99.90;;;11.49;75.78;102659.34;5070201;28;20049;-66
2021/11/15 07:31:23;;;;;;;31.35;24.23;;;11.30;99.90;;;11.61;75.56;102666.66;5053079;28;20471;-67
2021/11/15 07:33:52;;;;;;;34.40;24.95;;;11.40;99.90;;;11.64;75.40;102664.97;5054680;28;20045;-65
2021/11/15 07:36:20;;;;;;;35.55;25.35;;;11.50;99.90;;;11.64;75.55;102666.69;5069975;28;20544;-65
2021/11/15 07:38:49;;;;;;;29.58;21.60;;;11.50;99.90;;;11.34;75.42;102600.72;5054304;28;20045;-65
2021/11/15 07:41:18;;;;;;;30.02;22.65;;;11.50;99.90;;;11.72;75.27;102675.75;5054234;28;20040;-65
2021/11/15 07:43:46;;;;;;;32.50;22.70;;;11.50;99.90;;;11.49;75.33;102634.59;5054272;28;20053;-66
2021/11/15 07:46:16;;;;;;;32.28;23.45;;;11.50;99.90;;;11.77;74.94;102663.47;5054748;28;20103;-65
2021/11/15 07:48:45;;;;;;;32.53;23.90;;;11.60;99.90;;;11.82;74.73;102659.16;5054266;28;20071;-64
2021/11/15 07:51:14;;;;;;;31.02;23.50;;;11.60;99.90;;;11.81;74.76;102667.09;5054154;28;20132;-66
2021/11/15 07:53:42;;;;;;;33.80;23.23;;;11.70;99.90;;;11.85;74.66;102668.91;5069604;28;20509;-66
2021/11/15 07:56:12;;;;;;;32.85;24.33;;;11.70;99.90;;;11.86;74.56;102671.63;5053934;28;20132;-67
2021/11/15 07:58:40;;;;;;;36.35;25.48;;;11.70;99.90;;;11.53;74.64;102663.84;5054480;28;20086;-68
2021/11/15 08:01:09;;;;;;;33.00;24.63;;;11.50;99.90;;;11.55;74.98;102661.22;5054112;28;20056;-69
2021/11/15 08:03:41;;;;;;;34.67;25.75;;;11.40;99.90;;;11.56;75.21;102644.44;5069517;28;20063;-68
2021/11/15 08:06:15;;;;;;;31.65;24.90;;;11.40;99.90;;;11.75;75.23;102660.78;5054148;28;20048;-77
2021/11/15 08:08:47;;;;;;;32.95;24.17;;;11.50;99.90;;;11.76;75.30;102661.69;5052770;28;20045;-67
2021/11/15 08:11:16;;;;;;;36.67;25.92;;;11.60;99.90;;;11.73;75.35;102654.56;5053699;28;20041;-66
2021/11/15 08:13:46;;;;;;;33.87;24.27;;;11.60;99.90;;;11.74;75.30;102650.16;5053898;28;20071;-67
2021/11/15 08:16:15;;;;;;;31.50;23.67;;;11.60;99.90;;;11.72;75.32;102657.19;5052533;28;20094;-66
2021/11/15 08:18:45;;;;;;;34.70;26.08;;;11.50;99.90;;;11.86;75.31;102660.09;5053448;28;20102;-67
2021/11/15 08:21:18;;;;;;;37.70;24.83;;;11.60;99.90;;;11.75;75.16;102636.91;5053795;28;20079;-67
2021/11/15 08:23:48;;;;;;;35.90;23.88;;;11.70;99.90;;;11.84;74.72;102653.88;5053494;28;20087;-67
2021/11/15 08:26:37;;;;;;;33.85;25.35;;;11.70;99.90;;;11.63;74.87;102631.34;5054015;28;20045;-67
2021/11/15 08:29:21;;;;;;;30.83;24.20;;;11.60;99.90;;;11.76;74.93;102651.09;5052535;28;20056;-71
2021/11/15 08:31:52;;;;;;;34.15;24.15;;;11.60;99.90;;;11.23;75.22;102548.38;5052350;28;20045;-67
2021/11/15 08:34:23;;;;;;;36.53;26.27;;;11.60;99.90;;;11.70;75.27;102643.91;5053971;28;20047;-67
2021/11/15 08:36:51;;;;;;;32.17;25.13;;;11.60;99.90;;;11.36;75.32;102604.28;5053216;28;20037;-66
2021/11/15 08:39:22;;;;;;;30.88;24.45;;;11.50;99.90;;;11.71;75.04;102650.13;5053496;28;20133;-67
2021/11/15 08:41:53;;;;;;;31.73;24.17;;;11.60;99.90;;;11.58;75.21;102643.63;5068148;28;20053;-66
2021/11/15 08:44:24;;;;;;;34.90;26.05;;;11.50;99.90;;;11.62;75.28;102650.78;5053396;28;20049;-66
2021/11/15 08:46:53;;;;;;;29.70;23.77;;;11.50;99.90;;;11.67;75.34;102650.91;5053435;28;20057;-66
2021/11/15 08:49:26;;;;;;;30.25;23.90;;;11.50;99.90;;;11.36;75.20;102621.97;5053130;28;20045;-66
2021/11/15 08:51:56;;;;;;;36.63;24.98;;;11.40;99.90;;;11.30;75.78;102650.97;5053113;28;20055;-66
2021/11/15 08:54:25;;;;;;;34.25;25.13;;;11.20;99.90;;;11.33;75.89;102649.28;5053034;28;20448;-66
2021/11/15 08:57:00;;;;;;;32.67;24.50;;;11.20;99.90;;;11.33;76.07;102644.00;5053005;28;20123;-66
2021/11/15 08:59:40;;;;;;;34.58;24.15;;;11.20;99.90;;;11.22;76.22;102626.97;5053306;28;20053;-66
2021/11/15 09:02:09;;;;;;;32.50;24.58;;;11.20;99.90;;;11.39;76.16;102649.41;5052823;28;20048;-66
2021/11/15 09:04:40;;;;;;;31.60;23.48;;;11.30;99.90;;;11.27;76.17;102635.91;5051706;28;20037;-66
2021/11/15 09:07:08;;;;;;;30.83;23.48;;;11.20;99.90;;;11.37;75.80;102650.25;5053279;28;20041;-66
2021/11/15 09:09:37;;;;;;;29.35;22.42;;;11.20;99.90;;;11.45;75.94;102648.66;5053098;28;20045;-66
2021/11/15 09:12:08;;;;;;;32.65;24.48;;;11.30;99.90;;;11.51;76.10;102643.47;5051820;28;20402;-66
2021/11/15 09:14:38;;;;;;;29.67;22.48;;;11.30;99.90;;;11.56;75.62;102648.00;5052974;28;20457;-66
2021/11/15 09:17:08;;;;;;;30.95;22.10;;;11.40;99.90;;;9.63;75.34;102317.44;5053069;28;20091;-66
2021/11/15 09:19:38;;;;;;;29.98;22.92;;;11.40;99.90;;;11.58;75.64;102653.31;5052746;28;20060;-66
2021/11/15 09:22:09;;;;;;;34.05;23.80;;;11.40;99.90;;;11.25;75.49;102583.75;5053060;28;20099;-66
2021/11/15 09:24:41;;;;;;;30.08;22.30;;;11.40;99.90;;;11.06;75.31;102566.59;5053061;28;20110;-66
2021/11/15 09:27:13;;;;;;;30.70;22.65;;;11.40;99.90;;;11.50;75.38;102633.72;5051763;28;20441;-66
2021/11/15 09:29:44;;;;;;;29.65;22.52;;;11.40;99.90;;;11.22;75.61;102632.28;5068496;28;20473;-66
2021/11/15 09:32:14;;;;;;;28.98;21.95;;;11.20;99.90;;;10.93;76.48;102620.16;5053289;28;20355;-66
2021/11/15 09:34:44;;;;;;;32.38;23.38;;;11.00;99.90;;;11.14;76.62;102633.88;5052792;28;20041;-66
2021/11/15 09:37:15;;;;;;;30.77;22.33;;;11.00;99.90;;;11.22;76.52;102634.94;5051734;28;20402;-66
2021/11/15 09:39:47;;;;;;;31.33;23.05;;;11.00;99.90;;;11.08;76.74;102628.44;5052820;28;20044;-65
2021/11/15 09:42:18;;;;;;;32.13;23.58;;;11.00;99.90;;;11.16;76.62;102632.16;5052490;28;20041;-66
2021/11/15 09:44:48;;;;;;;29.98;22.40;;;11.00;99.90;;;11.07;76.67;102610.75;5068042;28;20171;-66
2021/11/15 09:47:20;;;;;;;31.33;22.90;;;11.10;99.90;;;11.22;76.76;102620.78;5052586;28;20103;-66
2021/11/15 09:49:49;;;;;;;34.03;23.52;;;11.10;99.90;;;11.30;76.88;102633.34;5068554;28;20395;-66
2021/11/15 09:52:19;;;;;;;30.60;23.65;;;11.10;99.90;;;10.92;76.64;102589.22;5052730;28;20047;-66
2021/11/15 09:54:48;;;;;;;31.67;22.67;;;11.10;99.90;;;11.11;76.53;102574.66;5056769;28;20051;-66
2021/11/15 09:57:38;;;;;;;29.67;21.70;;;11.20;99.90;;;11.29;76.12;102580.28;5056365;28;20056;-67
2021/11/15 10:00:12;;;;;;;29.33;22.27;;;11.30;99.90;;;11.49;76.01;102616.03;5056403;28;20045;-66
2021/11/15 10:02:41;;;;;;;32.22;23.65;;;11.30;99.90;;;11.48;75.88;102635.44;5056435;28;20087;-66
2021/11/15 10:05:11;;;;;;;33.53;23.17;;;11.30;99.90;;;11.28;75.77;102603.28;5056035;28;20143;-66
2021/11/15 10:07:45;;;;;;;30.98;23.17;;;11.30;99.90;;;11.51;76.01;102636.44;5056594;28;20053;-66
2021/11/15 10:10:37;;;;;;;31.08;22.55;;;11.30;99.90;;;10.77;76.00;102525.38;5056388;28;20048;-66
2021/11/15 10:13:22;;;;;;;32.78;23.75;;;11.30;99.90;;;11.43;76.03;102622.13;5054699;28;20057;-66